»·PEaware :: N251RT KFUL-KCMA

N251RT :: KFUL-KCMA

FLIGHT INFORMATION

Flight Status: Arrived
Operator: Privately registered:
United States
More flights under this callsign
Pilot: Roberto A. (10419)
Aircraft: CESSNA 310
(C310)
More flights by this aircraft type
Origin: KFUL Fullerton Mun
United States
Destination: KCMA Camarillo
United States
More flights between these airports :: More routes between these airports
Route:
File this flight plan on PilotEdge
Remarks:
Altitude:
(Current/Filed)
2,500ft
Speed:
(Current/Filed)
150kts
Departed: 23-Dec-18 07:45 PM
Arrived: 23-Dec-18 08:22 PM
Distance/Time
Traveled:
59nm/0:37
Distance/Time
To Go:
Arrived

Flight Plot

Page will automatically refresh every two minutes.

Flight plan parsing failed; only flown route is shown


Map Options




Map Legend


Flown Route
Filed Route
Departure Airport
Arrival Airport
Navaid (VOR, NDB)
Fix

Horizontal Profiles

Position Reports

Time Latitude Longitude Heading Altitude Ground
Speed
23-Dec-18 19:27 33.870861 -117.980474 255 93ft 0kts
23-Dec-18 19:28 33.870861 -117.980474 255 93ft 0kts
23-Dec-18 19:29 33.870861 -117.980474 255 93ft 0kts
23-Dec-18 19:30 33.870861 -117.980474 255 93ft 0kts
23-Dec-18 19:31 33.870861 -117.980474 255 93ft 0kts
23-Dec-18 19:32 33.870861 -117.980474 255 93ft 0kts
23-Dec-18 19:33 33.870861 -117.980474 255 93ft 0kts
23-Dec-18 19:34 33.870861 -117.980474 255 93ft 0kts
23-Dec-18 19:35 33.870861 -117.980474 255 93ft 0kts
23-Dec-18 19:36 33.870861 -117.980474 255 93ft 0kts
23-Dec-18 19:37 33.870861 -117.980474 255 93ft 0kts
23-Dec-18 19:38 33.870861 -117.980474 255 93ft 0kts
23-Dec-18 19:39 33.870861 -117.980474 255 93ft 0kts
23-Dec-18 19:40 33.870861 -117.980474 255 93ft 0kts
23-Dec-18 19:41 33.870857 -117.980494 257 93ft 2kts
23-Dec-18 19:42 33.872185 -117.976941 76 93ft 19kts
23-Dec-18 19:43 33.872944 -117.975012 274 93ft 6kts
23-Dec-18 19:44 33.872079 -117.979479 255 93ft 67kts
23-Dec-18 19:45 33.865010 -118.012276 262 831ft 120kts
23-Dec-18 19:46 33.865733 -118.047855 272 1772ft 123kts
23-Dec-18 19:47 33.867033 -118.087192 273 2493ft 131kts
23-Dec-18 19:48 33.875493 -118.084713 167 2523ft 157kts
23-Dec-18 19:49 33.846416 -118.119361 239 2501ft 167kts
23-Dec-18 19:50 33.837062 -118.165178 259 2500ft 168kts
23-Dec-18 19:51 33.830396 -118.209320 267 2459ft 128kts
23-Dec-18 19:52 33.834301 -118.242559 288 2508ft 128kts
23-Dec-18 19:53 33.846417 -118.274944 299 2502ft 140kts
23-Dec-18 19:54 33.859469 -118.300139 305 2498ft 139kts
23-Dec-18 19:55 33.874906 -118.325653 306 2497ft 136kts
23-Dec-18 19:56 33.889810 -118.350080 306 2507ft 125kts
23-Dec-18 19:57 33.906648 -118.355726 58 2513ft 86kts
23-Dec-18 19:58 33.902040 -118.334593 162 2505ft 109kts
23-Dec-18 19:59 33.889771 -118.355315 307 2496ft 106kts
23-Dec-18 20:00 33.910885 -118.374419 325 2506ft 109kts
23-Dec-18 20:01 33.937420 -118.396618 325 2355ft 118kts
23-Dec-18 20:02 33.967975 -118.421831 325 2333ft 108kts
23-Dec-18 20:03 33.996400 -118.445236 325 2336ft 105kts
23-Dec-18 20:04 34.019939 -118.484832 296 2339ft 114kts
23-Dec-18 20:05 34.033595 -118.542633 276 2335ft 119kts
23-Dec-18 20:06 34.034972 -118.581891 271 2282ft 126kts
23-Dec-18 20:07 34.036043 -118.626805 271 2338ft 140kts
23-Dec-18 20:08 34.034590 -118.674457 266 2335ft 144kts
23-Dec-18 20:09 34.030935 -118.723025 264 2335ft 145kts
23-Dec-18 20:10 34.026052 -118.771685 263 2335ft 145kts
23-Dec-18 20:11 34.022585 -118.820309 273 2336ft 145kts
23-Dec-18 20:12 34.028904 -118.868822 280 2335ft 145kts
23-Dec-18 20:13 34.036500 -118.917078 280 2335ft 145kts
23-Dec-18 20:14 34.044094 -118.965273 280 2335ft 145kts
23-Dec-18 20:15 34.058411 -119.010100 320 2329ft 145kts
23-Dec-18 20:16 34.097205 -119.023144 353 2333ft 145kts
23-Dec-18 20:17 34.135622 -119.028209 353 2332ft 134kts
23-Dec-18 20:18 34.171517 -119.035766 342 1924ft 112kts
23-Dec-18 20:19 34.199794 -119.044733 351 1177ft 103kts
23-Dec-18 20:20 34.213600 -119.070529 269 400ft 100kts
23-Dec-18 20:21 34.213644 -119.094659 254 75ft 10kts
23-Dec-18 20:22 34.212525 -119.095709 185 75ft 10kts
23-Dec-18 20:23 34.210580 -119.094264 61 75ft 0kts

Navigation Log

Ident Type
Flight plan parsing failed, navigation log unavailable